WIF36A EFIV-ENTC
Flight info
| Callsign | WIF36A |
|---|---|
| Flight time | 1h 7m |
| Altitude | 24000 |
| Route | LUSAG2D LUSAG DCT KIIKA KIIKA2M |
| Aircraft | DH8D/M-SDE2E3FGRY/H |
Departure
| Time | 2026-04-30 13:30 |
|---|---|
| Airport | Ivalo Airport (EFIV) |
Arrival
| Time | 2026-04-30 14:37 |
|---|---|
| Airport | Tromsø Airport (ENTC) |
| Time | Latitude | Longitude | Altitude | Speed | Heading |
|---|---|---|---|---|---|
| 2026-04-30 13:10 | 68.60834 | 27.41755 | 482 ft | 0 kts | 136° |
| 2026-04-30 13:24 | 68.60833 | 27.41756 | 482 ft | 0 kts | 136° |
| 2026-04-30 13:24 | 68.60847 | 27.41721 | 481 ft | 1 kts | 136° |
| 2026-04-30 13:25 | 68.60860 | 27.41663 | 480 ft | 2 kts | 99° |
| 2026-04-30 13:25 | 68.60854 | 27.41586 | 480 ft | 2 kts | 54° |
| 2026-04-30 13:26 | 68.60850 | 27.41570 | 480 ft | 0 kts | 46° |
| 2026-04-30 13:27 | 68.60862 | 27.41605 | 480 ft | 9 kts | 46° |
| 2026-04-30 13:28 | 68.61057 | 27.41529 | 470 ft | 12 kts | 19° |
| 2026-04-30 13:28 | 68.61239 | 27.42026 | 479 ft | 28 kts | 47° |
| 2026-04-30 13:28 | 68.61375 | 27.42422 | 489 ft | 18 kts | 47° |
| 2026-04-30 13:29 | 68.61468 | 27.42738 | 493 ft | 7 kts | 311° |
| 2026-04-30 13:29 | 68.61130 | 27.41711 | 471 ft | 102 kts | 225° |
| 2026-04-30 13:30 | 68.59178 | 27.35470 | 1217 ft | 164 kts | 236° |
| 2026-04-30 13:31 | 68.57610 | 27.30685 | 1986 ft | 188 kts | 233° |
| 2026-04-30 13:31 | 68.55750 | 27.22164 | 2453 ft | 180 kts | 250° |
| 2026-04-30 13:32 | 68.54006 | 27.15817 | 2363 ft | 229 kts | 218° |
| 2026-04-30 13:32 | 68.51487 | 27.10679 | 2580 ft | 225 kts | 223° |
| 2026-04-30 13:33 | 68.49145 | 27.05157 | 2747 ft | 223 kts | 226° |
| 2026-04-30 13:33 | 68.46941 | 26.99188 | 3093 ft | 225 kts | 238° |
| 2026-04-30 13:34 | 68.46149 | 26.95594 | 3543 ft | 225 kts | 245° |
| 2026-04-30 13:34 | 68.43904 | 26.84275 | 4893 ft | 230 kts | 246° |
| 2026-04-30 13:35 | 68.43158 | 26.80462 | 5339 ft | 231 kts | 247° |
| 2026-04-30 13:35 | 68.41648 | 26.72726 | 6215 ft | 235 kts | 247° |
| 2026-04-30 13:36 | 68.40392 | 26.66288 | 6910 ft | 239 kts | 247° |
| 2026-04-30 13:36 | 68.40076 | 26.64664 | 7085 ft | 240 kts | 248° |
| 2026-04-30 13:36 | 68.39893 | 26.63725 | 7191 ft | 240 kts | 248° |
| 2026-04-30 13:37 | 68.39633 | 26.62400 | 7390 ft | 240 kts | 247° |
| 2026-04-30 13:37 | 68.38063 | 26.54368 | 8221 ft | 244 kts | 249° |
| 2026-04-30 13:38 | 68.36459 | 26.46185 | 9014 ft | 249 kts | 249° |
| 2026-04-30 13:38 | 68.35648 | 26.42063 | 9426 ft | 250 kts | 249° |
| 2026-04-30 13:38 | 68.35425 | 26.33625 | 10129 ft | 226 kts | 304° |
| 2026-04-30 13:39 | 68.37272 | 26.26845 | 11137 ft | 227 kts | 310° |
| 2026-04-30 13:39 | 68.39195 | 26.20123 | 12302 ft | 226 kts | 310° |
| 2026-04-30 13:40 | 68.40157 | 26.16788 | 12778 ft | 230 kts | 310° |
| 2026-04-30 13:40 | 68.41129 | 26.13424 | 13383 ft | 227 kts | 310° |
| 2026-04-30 13:40 | 68.42114 | 26.10026 | 13866 ft | 229 kts | 310° |
| 2026-04-30 13:40 | 68.43096 | 26.06638 | 14391 ft | 229 kts | 310° |
| 2026-04-30 13:41 | 68.44059 | 26.03305 | 14913 ft | 228 kts | 311° |
| 2026-04-30 13:41 | 68.45044 | 25.99908 | 15317 ft | 231 kts | 310° |
| 2026-04-30 13:41 | 68.46018 | 25.96519 | 15709 ft | 230 kts | 311° |
| 2026-04-30 13:41 | 68.47010 | 25.93089 | 16091 ft | 230 kts | 310° |
| 2026-04-30 13:42 | 68.48000 | 25.89666 | 16389 ft | 232 kts | 310° |
| 2026-04-30 13:42 | 68.48997 | 25.86214 | 16684 ft | 234 kts | 311° |
| 2026-04-30 13:42 | 68.50986 | 25.79290 | 17414 ft | 231 kts | 310° |
| 2026-04-30 13:43 | 68.51964 | 25.75875 | 17744 ft | 230 kts | 310° |
| 2026-04-30 13:43 | 68.52940 | 25.72464 | 18060 ft | 229 kts | 310° |
| 2026-04-30 13:43 | 68.53911 | 25.69084 | 18384 ft | 228 kts | 311° |
| 2026-04-30 13:43 | 68.54877 | 25.65705 | 18729 ft | 226 kts | 310° |
| 2026-04-30 13:44 | 68.55835 | 25.62345 | 19040 ft | 225 kts | 311° |
| 2026-04-30 13:44 | 68.56795 | 25.58975 | 19344 ft | 224 kts | 311° |
| 2026-04-30 13:44 | 68.57751 | 25.55625 | 19639 ft | 224 kts | 311° |
| 2026-04-30 13:44 | 68.58701 | 25.52292 | 19929 ft | 222 kts | 310° |
| 2026-04-30 13:45 | 68.60565 | 25.45706 | 20461 ft | 220 kts | 311° |
| 2026-04-30 13:45 | 68.61500 | 25.42382 | 20692 ft | 219 kts | 311° |
| 2026-04-30 13:45 | 68.62424 | 25.39117 | 20933 ft | 218 kts | 311° |
| 2026-04-30 13:46 | 68.63343 | 25.35856 | 21165 ft | 217 kts | 311° |
| 2026-04-30 13:46 | 68.64256 | 25.32614 | 21397 ft | 215 kts | 310° |
| 2026-04-30 13:46 | 68.65163 | 25.29384 | 21612 ft | 215 kts | 310° |
| 2026-04-30 13:46 | 68.66075 | 25.26141 | 21836 ft | 214 kts | 310° |
| 2026-04-30 13:47 | 68.66595 | 25.24287 | 21958 ft | 213 kts | 310° |
| 2026-04-30 13:47 | 68.67471 | 25.21157 | 22155 ft | 213 kts | 311° |
| 2026-04-30 13:47 | 68.68356 | 25.17994 | 22345 ft | 212 kts | 310° |
| 2026-04-30 13:47 | 68.69256 | 25.14776 | 22530 ft | 210 kts | 310° |
| 2026-04-30 13:48 | 68.70142 | 25.11598 | 22711 ft | 210 kts | 310° |
| 2026-04-30 13:48 | 68.71019 | 25.08441 | 22884 ft | 209 kts | 310° |
| 2026-04-30 13:48 | 68.71887 | 25.05318 | 23041 ft | 208 kts | 311° |
| 2026-04-30 13:48 | 68.72761 | 25.02171 | 23194 ft | 207 kts | 311° |
| 2026-04-30 13:49 | 68.73636 | 24.99018 | 23321 ft | 206 kts | 310° |
| 2026-04-30 13:49 | 68.74498 | 24.95908 | 23461 ft | 206 kts | 310° |
| 2026-04-30 13:49 | 68.75364 | 24.92774 | 23600 ft | 205 kts | 311° |
| 2026-04-30 13:49 | 68.76224 | 24.89651 | 23734 ft | 204 kts | 311° |
| 2026-04-30 13:50 | 68.77083 | 24.86539 | 23843 ft | 204 kts | 311° |
| 2026-04-30 13:50 | 68.78803 | 24.80294 | 23992 ft | 208 kts | 311° |
| 2026-04-30 13:50 | 68.79675 | 24.77112 | 24021 ft | 210 kts | 311° |
| 2026-04-30 13:51 | 68.80566 | 24.73860 | 23997 ft | 215 kts | 311° |
| 2026-04-30 13:51 | 68.81459 | 24.70598 | 24006 ft | 218 kts | 310° |
| 2026-04-30 13:51 | 68.82383 | 24.67223 | 24016 ft | 221 kts | 311° |
| 2026-04-30 13:51 | 68.83318 | 24.63791 | 24008 ft | 225 kts | 310° |
| 2026-04-30 13:52 | 68.84256 | 24.60342 | 24009 ft | 228 kts | 311° |
| 2026-04-30 13:52 | 68.85215 | 24.56820 | 23991 ft | 232 kts | 310° |
| 2026-04-30 13:52 | 68.86186 | 24.53244 | 23992 ft | 234 kts | 310° |
| 2026-04-30 13:52 | 68.87167 | 24.49620 | 24007 ft | 236 kts | 309° |
| 2026-04-30 13:53 | 68.88147 | 24.46008 | 24002 ft | 239 kts | 310° |
| 2026-04-30 13:53 | 68.89159 | 24.42258 | 23988 ft | 242 kts | 309° |
| 2026-04-30 13:53 | 68.90164 | 24.38522 | 23990 ft | 244 kts | 310° |
| 2026-04-30 13:53 | 68.91181 | 24.34741 | 23995 ft | 246 kts | 308° |
| 2026-04-30 13:54 | 68.92192 | 24.30983 | 24001 ft | 248 kts | 309° |
| 2026-04-30 13:54 | 68.93226 | 24.27122 | 23986 ft | 250 kts | 309° |
| 2026-04-30 13:54 | 68.94259 | 24.23275 | 24003 ft | 250 kts | 308° |
| 2026-04-30 13:54 | 68.95302 | 24.19362 | 23995 ft | 252 kts | 308° |
| 2026-04-30 13:55 | 68.96336 | 24.15479 | 23997 ft | 254 kts | 308° |
| 2026-04-30 13:55 | 68.97385 | 24.11545 | 24004 ft | 254 kts | 308° |
| 2026-04-30 13:55 | 68.98431 | 24.07605 | 23984 ft | 255 kts | 308° |
| 2026-04-30 13:55 | 68.99498 | 24.03587 | 23989 ft | 257 kts | 308° |
| 2026-04-30 13:56 | 69.00542 | 23.99647 | 24016 ft | 255 kts | 308° |
| 2026-04-30 13:56 | 69.01598 | 23.95639 | 23984 ft | 257 kts | 309° |
| 2026-04-30 13:56 | 69.02657 | 23.91641 | 23974 ft | 257 kts | 308° |
| 2026-04-30 13:56 | 69.03704 | 23.87686 | 23980 ft | 257 kts | 309° |
| 2026-04-30 13:57 | 69.04752 | 23.83677 | 23998 ft | 256 kts | 308° |
| 2026-04-30 13:57 | 69.05816 | 23.79630 | 23975 ft | 258 kts | 309° |
| 2026-04-30 13:57 | 69.06863 | 23.75627 | 23982 ft | 258 kts | 308° |
| 2026-04-30 13:57 | 69.07924 | 23.71564 | 23987 ft | 259 kts | 308° |
| 2026-04-30 13:58 | 69.08974 | 23.67542 | 23989 ft | 259 kts | 308° |
| 2026-04-30 13:58 | 69.11089 | 23.59413 | 23994 ft | 260 kts | 308° |
| 2026-04-30 13:58 | 69.12157 | 23.55306 | 23985 ft | 261 kts | 308° |
| 2026-04-30 13:59 | 69.13220 | 23.51189 | 23976 ft | 261 kts | 308° |
| 2026-04-30 13:59 | 69.14284 | 23.47086 | 23983 ft | 261 kts | 308° |
| 2026-04-30 13:59 | 69.15344 | 23.42993 | 23968 ft | 262 kts | 307° |
| 2026-04-30 13:59 | 69.16400 | 23.38875 | 23973 ft | 263 kts | 308° |
| 2026-04-30 14:00 | 69.17467 | 23.34726 | 23976 ft | 264 kts | 307° |
| 2026-04-30 14:00 | 69.19615 | 23.26345 | 23980 ft | 266 kts | 307° |
| 2026-04-30 14:00 | 69.20695 | 23.22123 | 23977 ft | 267 kts | 306° |
| 2026-04-30 14:01 | 69.21766 | 23.17920 | 23976 ft | 267 kts | 306° |
| 2026-04-30 14:01 | 69.22849 | 23.13660 | 23992 ft | 266 kts | 306° |
| 2026-04-30 14:01 | 69.23919 | 23.09455 | 23970 ft | 267 kts | 307° |
| 2026-04-30 14:01 | 69.24998 | 23.05212 | 23980 ft | 267 kts | 307° |
| 2026-04-30 14:02 | 69.26063 | 23.00997 | 23981 ft | 267 kts | 307° |
| 2026-04-30 14:02 | 69.27137 | 22.96743 | 23993 ft | 267 kts | 307° |
| 2026-04-30 14:02 | 69.28221 | 22.92441 | 23981 ft | 268 kts | 307° |
| 2026-04-30 14:02 | 69.29291 | 22.88191 | 23975 ft | 268 kts | 306° |
| 2026-04-30 14:03 | 69.30366 | 22.83904 | 23982 ft | 268 kts | 307° |
| 2026-04-30 14:03 | 69.31436 | 22.79639 | 23982 ft | 268 kts | 307° |
| 2026-04-30 14:03 | 69.32516 | 22.75323 | 23983 ft | 268 kts | 307° |
| 2026-04-30 14:03 | 69.33593 | 22.71005 | 23986 ft | 269 kts | 307° |
| 2026-04-30 14:04 | 69.34658 | 22.66733 | 23973 ft | 270 kts | 306° |
| 2026-04-30 14:04 | 69.35736 | 22.62398 | 23971 ft | 270 kts | 306° |
| 2026-04-30 14:04 | 69.36813 | 22.58060 | 23972 ft | 269 kts | 305° |
| 2026-04-30 14:04 | 69.37884 | 22.53733 | 23964 ft | 268 kts | 307° |
| 2026-04-30 14:05 | 69.38944 | 22.49451 | 23970 ft | 269 kts | 306° |
| 2026-04-30 14:05 | 69.40010 | 22.45116 | 23958 ft | 269 kts | 306° |
| 2026-04-30 14:05 | 69.41074 | 22.40791 | 23958 ft | 269 kts | 306° |
| 2026-04-30 14:05 | 69.42150 | 22.36424 | 23962 ft | 269 kts | 306° |
| 2026-04-30 14:06 | 69.43208 | 22.32093 | 23982 ft | 269 kts | 304° |
| 2026-04-30 14:06 | 69.45329 | 22.23425 | 23952 ft | 270 kts | 305° |
| 2026-04-30 14:07 | 69.47462 | 22.14668 | 23950 ft | 270 kts | 305° |
| 2026-04-30 14:07 | 69.48531 | 22.10260 | 23955 ft | 270 kts | 305° |
| 2026-04-30 14:07 | 69.49585 | 22.05912 | 23941 ft | 270 kts | 304° |
| 2026-04-30 14:08 | 69.51709 | 21.97114 | 23947 ft | 270 kts | 305° |
| 2026-04-30 14:08 | 69.52779 | 21.92672 | 23945 ft | 270 kts | 305° |
| 2026-04-30 14:08 | 69.54888 | 21.83883 | 23941 ft | 270 kts | 304° |
| 2026-04-30 14:09 | 69.55939 | 21.79491 | 23950 ft | 270 kts | 305° |
| 2026-04-30 14:09 | 69.57002 | 21.75040 | 23947 ft | 270 kts | 305° |
| 2026-04-30 14:09 | 69.59111 | 21.66183 | 23947 ft | 270 kts | 304° |
| 2026-04-30 14:10 | 69.60155 | 21.61787 | 23947 ft | 270 kts | 304° |
| 2026-04-30 14:10 | 69.61210 | 21.57329 | 23954 ft | 270 kts | 304° |
| 2026-04-30 14:10 | 69.62272 | 21.52838 | 23957 ft | 270 kts | 304° |
| 2026-04-30 14:10 | 69.63325 | 21.48376 | 23963 ft | 269 kts | 304° |
| 2026-04-30 14:11 | 69.64365 | 21.43952 | 23959 ft | 269 kts | 304° |
| 2026-04-30 14:11 | 69.65401 | 21.39546 | 23981 ft | 268 kts | 304° |
| 2026-04-30 14:11 | 69.66447 | 21.35085 | 23980 ft | 268 kts | 304° |
| 2026-04-30 14:11 | 69.67491 | 21.30621 | 23975 ft | 268 kts | 303° |
| 2026-04-30 14:12 | 69.68529 | 21.26170 | 23980 ft | 268 kts | 303° |
| 2026-04-30 14:12 | 69.69553 | 21.21776 | 24002 ft | 268 kts | 303° |
| 2026-04-30 14:12 | 69.70589 | 21.17323 | 24001 ft | 267 kts | 303° |
| 2026-04-30 14:12 | 69.71275 | 21.14362 | 23991 ft | 267 kts | 302° |
| 2026-04-30 14:13 | 69.72649 | 21.08435 | 24003 ft | 267 kts | 303° |
| 2026-04-30 14:13 | 69.73669 | 21.04020 | 24008 ft | 267 kts | 303° |
| 2026-04-30 14:13 | 69.74428 | 21.00730 | 23993 ft | 267 kts | 303° |
| 2026-04-30 14:13 | 69.75311 | 20.96485 | 24011 ft | 266 kts | 298° |
| 2026-04-30 14:14 | 69.76090 | 20.91679 | 23987 ft | 266 kts | 296° |
| 2026-04-30 14:14 | 69.76844 | 20.86842 | 23962 ft | 267 kts | 296° |
| 2026-04-30 14:14 | 69.77605 | 20.81932 | 23988 ft | 265 kts | 295° |
| 2026-04-30 14:14 | 69.78357 | 20.77093 | 23998 ft | 264 kts | 295° |
| 2026-04-30 14:15 | 69.79108 | 20.72281 | 23977 ft | 264 kts | 296° |
| 2026-04-30 14:15 | 69.79858 | 20.67458 | 23983 ft | 264 kts | 295° |
| 2026-04-30 14:15 | 69.80596 | 20.62702 | 23980 ft | 256 kts | 296° |
| 2026-04-30 14:15 | 69.81287 | 20.58190 | 23975 ft | 234 kts | 295° |
| 2026-04-30 14:16 | 69.81919 | 20.54075 | 23947 ft | 213 kts | 294° |
| 2026-04-30 14:16 | 69.82500 | 20.50289 | 23970 ft | 199 kts | 296° |
| 2026-04-30 14:16 | 69.83027 | 20.46846 | 23925 ft | 177 kts | 297° |
| 2026-04-30 14:16 | 69.83484 | 20.43847 | 23919 ft | 148 kts | 296° |
| 2026-04-30 14:17 | 69.83873 | 20.41300 | 23737 ft | 140 kts | 296° |
| 2026-04-30 14:17 | 69.84290 | 20.38693 | 23635 ft | 141 kts | 296° |
| 2026-04-30 14:17 | 69.84677 | 20.36227 | 23666 ft | 129 kts | 296° |
| 2026-04-30 14:17 | 69.85084 | 20.33658 | 23501 ft | 143 kts | 296° |
| 2026-04-30 14:18 | 69.85479 | 20.31098 | 23573 ft | 134 kts | 295° |
| 2026-04-30 14:18 | 69.85851 | 20.28632 | 23114 ft | 141 kts | 295° |
| 2026-04-30 14:18 | 69.86644 | 20.23346 | 21908 ft | 145 kts | 293° |
| 2026-04-30 14:19 | 69.87433 | 20.18103 | 20891 ft | 141 kts | 293° |
| 2026-04-30 14:19 | 69.87823 | 20.15521 | 20384 ft | 140 kts | 293° |
| 2026-04-30 14:19 | 69.88211 | 20.12947 | 19884 ft | 140 kts | 292° |
| 2026-04-30 14:20 | 69.88596 | 20.10401 | 19379 ft | 139 kts | 293° |
| 2026-04-30 14:20 | 69.88974 | 20.07893 | 18868 ft | 138 kts | 294° |
| 2026-04-30 14:20 | 69.89736 | 20.02828 | 17865 ft | 140 kts | 292° |
| 2026-04-30 14:21 | 69.90104 | 20.00241 | 17351 ft | 140 kts | 285° |
| 2026-04-30 14:21 | 69.90253 | 19.97447 | 16850 ft | 141 kts | 278° |
| 2026-04-30 14:21 | 69.90383 | 19.91899 | 15934 ft | 137 kts | 278° |
| 2026-04-30 14:22 | 69.90448 | 19.89184 | 15482 ft | 136 kts | 276° |
| 2026-04-30 14:22 | 69.90575 | 19.83802 | 14552 ft | 134 kts | 277° |
| 2026-04-30 14:22 | 69.90638 | 19.81176 | 14067 ft | 132 kts | 278° |
| 2026-04-30 14:23 | 69.90771 | 19.75845 | 13131 ft | 133 kts | 277° |
| 2026-04-30 14:23 | 69.90896 | 19.70675 | 12241 ft | 132 kts | 274° |
| 2026-04-30 14:24 | 69.91019 | 19.65412 | 11391 ft | 127 kts | 275° |
| 2026-04-30 14:24 | 69.91082 | 19.62877 | 10913 ft | 129 kts | 274° |
| 2026-04-30 14:25 | 69.91200 | 19.57763 | 10035 ft | 124 kts | 275° |
| 2026-04-30 14:25 | 69.91316 | 19.52707 | 9112 ft | 125 kts | 273° |
| 2026-04-30 14:26 | 69.91429 | 19.47824 | 8258 ft | 123 kts | 272° |
| 2026-04-30 14:26 | 69.91481 | 19.45362 | 7790 ft | 122 kts | 273° |
| 2026-04-30 14:26 | 69.91592 | 19.40501 | 6899 ft | 122 kts | 273° |
| 2026-04-30 14:27 | 69.91647 | 19.38075 | 6493 ft | 120 kts | 275° |
| 2026-04-30 14:27 | 69.91788 | 19.35679 | 6018 ft | 123 kts | 281° |
| 2026-04-30 14:27 | 69.91980 | 19.33343 | 5666 ft | 117 kts | 279° |
| 2026-04-30 14:28 | 69.92377 | 19.28578 | 5058 ft | 124 kts | 279° |
| 2026-04-30 14:28 | 69.92578 | 19.26157 | 4870 ft | 123 kts | 279° |
| 2026-04-30 14:28 | 69.92778 | 19.23729 | 4685 ft | 123 kts | 279° |
| 2026-04-30 14:28 | 69.92973 | 19.21351 | 4566 ft | 118 kts | 278° |
| 2026-04-30 14:29 | 69.93351 | 19.16721 | 4395 ft | 121 kts | 278° |
| 2026-04-30 14:29 | 69.93678 | 19.12686 | 4451 ft | 121 kts | 276° |
| 2026-04-30 14:30 | 69.91640 | 19.08094 | 4381 ft | 135 kts | 209° |
| 2026-04-30 14:31 | 69.89803 | 19.06554 | 4470 ft | 142 kts | 206° |
| 2026-04-30 14:31 | 69.87921 | 19.05166 | 4454 ft | 137 kts | 206° |
| 2026-04-30 14:31 | 69.86996 | 19.04499 | 4488 ft | 139 kts | 205° |
| 2026-04-30 14:32 | 69.85157 | 19.03203 | 4455 ft | 132 kts | 206° |
| 2026-04-30 14:32 | 69.84272 | 19.02539 | 4371 ft | 133 kts | 206° |
| 2026-04-30 14:32 | 69.83359 | 19.01864 | 4198 ft | 137 kts | 205° |
| 2026-04-30 14:33 | 69.82451 | 19.01236 | 3908 ft | 133 kts | 204° |
| 2026-04-30 14:33 | 69.80724 | 19.00096 | 3211 ft | 122 kts | 204° |
| 2026-04-30 14:33 | 69.79915 | 18.99588 | 2751 ft | 119 kts | 202° |
| 2026-04-30 14:34 | 69.79128 | 18.99083 | 2383 ft | 116 kts | 201° |
| 2026-04-30 14:34 | 69.78362 | 18.98569 | 2027 ft | 112 kts | 200° |
| 2026-04-30 14:34 | 69.77593 | 18.98039 | 1770 ft | 114 kts | 199° |
| 2026-04-30 14:34 | 69.76808 | 18.97488 | 1619 ft | 118 kts | 198° |
| 2026-04-30 14:35 | 69.75204 | 18.96404 | 1415 ft | 113 kts | 198° |
| 2026-04-30 14:35 | 69.74442 | 18.95884 | 1342 ft | 112 kts | 199° |
| 2026-04-30 14:35 | 69.73698 | 18.95376 | 1248 ft | 112 kts | 198° |
| 2026-04-30 14:36 | 69.72912 | 18.94814 | 1220 ft | 120 kts | 198° |
| 2026-04-30 14:36 | 69.72089 | 18.94258 | 1039 ft | 124 kts | 195° |
| 2026-04-30 14:36 | 69.71233 | 18.93807 | 687 ft | 124 kts | 191° |
| 2026-04-30 14:36 | 69.70400 | 18.93382 | 442 ft | 122 kts | 196° |
| 2026-04-30 14:37 | 69.69578 | 18.92786 | 203 ft | 119 kts | 195° |
| 2026-04-30 14:37 | 69.68793 | 18.92207 | 29 ft | 113 kts | 193° |
| 2026-04-30 14:37 | 69.68210 | 18.91809 | 11 ft | 54 kts | 194° |
| 2026-04-30 14:37 | 69.68075 | 18.91701 | 13 ft | 7 kts | 219° |
| 2026-04-30 14:38 | 69.68063 | 18.91606 | 13 ft | 4 kts | 275° |
| 2026-04-30 14:38 | 69.68072 | 18.91462 | 12 ft | 7 kts | 283° |
| 2026-04-30 14:38 | 69.68044 | 18.91320 | 14 ft | 14 kts | 195° |
| 2026-04-30 14:38 | 69.67940 | 18.91242 | 17 ft | 16 kts | 193° |
| 2026-04-30 14:39 | 69.67822 | 18.91164 | 21 ft | 14 kts | 192° |
| 2026-04-30 14:39 | 69.67772 | 18.91096 | 22 ft | 5 kts | 256° |
| 2026-04-30 14:39 | 69.67778 | 18.90971 | 21 ft | 6 kts | 282° |
| 2026-04-30 14:40 | 69.67792 | 18.90804 | 19 ft | 0 kts | 283° |